createdAt,value
2023-05-18T00:00:01.979Z,8.48
2023-05-18T00:02:51.534Z,8.44
2023-05-18T00:05:18.239Z,8.43
2023-05-18T00:07:46.234Z,8.41
2023-05-18T00:10:12.709Z,8.40
2023-05-18T00:12:39.255Z,8.38
2023-05-18T00:15:06.147Z,8.40
2023-05-18T00:17:32.559Z,8.38
2023-05-18T00:20:00.355Z,8.37
2023-05-18T00:22:26.803Z,8.36
2023-05-18T00:24:53.212Z,8.34
2023-05-18T00:27:19.756Z,8.33
2023-05-18T00:29:46.253Z,8.29
2023-05-18T00:32:12.662Z,8.28
2023-05-18T00:34:39.235Z,8.25
2023-05-18T00:37:05.767Z,8.24
2023-05-18T00:39:32.113Z,8.22
2023-05-18T00:41:58.608Z,8.18
2023-05-18T00:44:26.122Z,8.15
2023-05-18T00:46:53.697Z,8.12
2023-05-18T00:49:20.570Z,8.09
2023-05-18T00:51:47.458Z,8.05
2023-05-18T00:54:15.880Z,8.00
2023-05-18T00:56:45.530Z,7.95
2023-05-18T00:59:12.067Z,7.91
2023-05-18T01:01:43.069Z,7.88
2023-05-18T01:04:09.816Z,7.86
2023-05-18T01:06:36.666Z,7.85
2023-05-18T01:09:06.107Z,7.82
2023-05-18T01:11:32.613Z,7.81
2023-05-18T01:14:39.395Z,7.81
2023-05-18T01:17:21.146Z,7.80
2023-05-18T01:19:50.953Z,7.78
2023-05-18T01:22:33.289Z,7.78
2023-05-18T01:25:16.794Z,7.77
2023-05-18T01:27:45.775Z,7.76
2023-05-18T01:30:17.377Z,7.75
2023-05-18T01:32:46.391Z,7.74
2023-05-18T01:35:13.004Z,7.75
2023-05-18T01:37:39.854Z,7.73
2023-05-18T01:40:08.567Z,7.71
2023-05-18T01:42:44.041Z,7.71
2023-05-18T01:45:21.015Z,7.70
2023-05-18T01:47:48.715Z,7.71
2023-05-18T01:50:25.177Z,7.70
2023-05-18T01:52:57.766Z,7.68
2023-05-18T01:55:29.123Z,7.66
2023-05-18T01:57:59.841Z,7.64
2023-05-18T02:00:26.736Z,7.63
2023-05-18T02:02:53.173Z,7.62
2023-05-18T02:05:19.741Z,7.59
2023-05-18T02:07:47.147Z,7.59
2023-05-18T02:10:14.136Z,7.58
2023-05-18T02:12:41.065Z,7.54
2023-05-18T02:15:09.530Z,7.51
2023-05-18T02:17:39.334Z,7.49
2023-05-18T02:20:07.318Z,7.47
2023-05-18T02:22:34.856Z,7.44
2023-05-18T02:25:02.664Z,7.40
2023-05-18T02:27:29.302Z,7.37
2023-05-18T02:29:56.083Z,7.34
2023-05-18T02:32:23.479Z,7.31
2023-05-18T02:34:53.072Z,7.28
2023-05-18T02:37:22.349Z,7.26
2023-05-18T02:39:49.372Z,7.23
2023-05-18T02:42:15.784Z,7.19
2023-05-18T02:44:44.710Z,7.15
2023-05-18T02:47:13.470Z,7.15
2023-05-18T02:49:40.971Z,7.12
2023-05-18T02:52:07.452Z,7.11
2023-05-18T02:54:34.062Z,7.09
2023-05-18T02:57:01.077Z,7.05
2023-05-18T02:59:35.651Z,6.97
2023-05-18T03:02:02.518Z,6.97
2023-05-18T03:04:28.977Z,6.95
2023-05-18T03:06:56.579Z,6.94
2023-05-18T03:09:23.362Z,6.96
2023-05-18T03:11:51.108Z,6.96
2023-05-18T03:14:17.429Z,6.94
2023-05-18T03:16:44.597Z,6.95
2023-05-18T03:19:15.309Z,6.92
2023-05-18T03:21:41.970Z,6.92
2023-05-18T03:24:08.432Z,6.89
2023-05-18T03:26:39.171Z,6.88
2023-05-18T03:29:05.785Z,6.87
2023-05-18T03:31:32.701Z,6.87
2023-05-18T03:33:59.544Z,6.88
2023-05-18T03:36:27.427Z,6.88
2023-05-18T03:38:54.050Z,6.88
2023-05-18T03:41:21.455Z,6.89
2023-05-18T03:43:47.860Z,6.90
2023-05-18T03:46:14.296Z,6.91
2023-05-18T03:48:40.626Z,6.93
2023-05-18T03:51:07.296Z,6.93
2023-05-18T03:53:35.526Z,6.95
2023-05-18T03:56:01.992Z,6.97
2023-05-18T03:58:29.347Z,6.99
2023-05-18T04:01:01.275Z,6.99
2023-05-18T04:03:27.886Z,6.99
2023-05-18T04:05:55.181Z,7.02
2023-05-18T04:08:24.760Z,7.04
2023-05-18T04:10:51.983Z,7.05
2023-05-18T04:13:18.458Z,7.08
2023-05-18T04:15:45.225Z,7.10
2023-05-18T04:18:13.093Z,7.10
2023-05-18T04:20:41.920Z,7.11
2023-05-18T04:23:09.498Z,7.11
2023-05-18T04:25:35.878Z,7.12
2023-05-18T04:28:02.484Z,7.15
2023-05-18T04:30:30.392Z,7.18
2023-05-18T04:32:59.836Z,7.20
2023-05-18T04:35:27.221Z,7.24
2023-05-18T04:37:54.005Z,7.26
2023-05-18T04:40:20.376Z,7.29
2023-05-18T04:42:49.109Z,7.33
2023-05-18T04:45:25.345Z,7.39
2023-05-18T04:47:54.792Z,7.44
2023-05-18T04:50:23.081Z,7.49
2023-05-18T04:52:50.823Z,7.52
2023-05-18T04:55:27.307Z,7.57
2023-05-18T04:58:04.218Z,7.62
2023-05-18T05:00:30.809Z,7.67
2023-05-18T05:02:58.584Z,7.73
2023-05-18T05:05:26.224Z,7.77
2023-05-18T05:07:53.574Z,7.80
2023-05-18T05:10:21.508Z,7.85
2023-05-18T05:12:50.784Z,7.90
2023-05-18T05:15:18.406Z,7.96
2023-05-18T05:17:48.165Z,8.01
2023-05-18T05:20:15.613Z,8.05
2023-05-18T05:22:42.387Z,8.06
2023-05-18T05:25:10.806Z,8.12
2023-05-18T05:27:38.261Z,8.15
2023-05-18T05:30:05.438Z,8.18
2023-05-18T05:32:35.316Z,8.20
2023-05-18T05:35:02.817Z,8.25
2023-05-18T05:37:29.317Z,8.31
2023-05-18T05:39:56.237Z,8.38
2023-05-18T05:42:24.777Z,8.39
2023-05-18T05:44:51.187Z,8.43
2023-05-18T05:47:18.949Z,8.47
2023-05-18T05:49:45.607Z,8.53
2023-05-18T05:52:12.100Z,8.60
2023-05-18T05:54:40.436Z,8.63
2023-05-18T05:57:07.056Z,8.71
2023-05-18T05:59:33.624Z,8.73
2023-05-18T06:02:00.491Z,8.82
2023-05-18T06:04:27.409Z,8.90
2023-05-18T06:06:54.766Z,8.95
2023-05-18T06:09:21.483Z,9.04
2023-05-18T06:11:52.260Z,9.12
2023-05-18T06:14:19.104Z,9.14
2023-05-18T06:16:45.639Z,9.19
2023-05-18T06:19:12.257Z,9.23
2023-05-18T06:21:39.125Z,9.30
2023-05-18T06:24:06.294Z,9.36
2023-05-18T06:27:01.833Z,9.45
2023-05-18T06:29:37.650Z,9.52
2023-05-18T06:32:32.579Z,9.59
2023-05-18T06:35:00.282Z,9.67
2023-05-18T06:37:26.686Z,9.74
2023-05-18T06:39:53.197Z,9.81
2023-05-18T06:42:19.811Z,9.87
2023-05-18T06:44:53.517Z,9.90
2023-05-18T06:47:28.765Z,9.90
2023-05-18T06:49:55.387Z,9.98
2023-05-18T06:52:23.188Z,10.08
2023-05-18T06:54:50.770Z,10.16
2023-05-18T06:57:17.625Z,10.29
2023-05-18T06:59:44.148Z,10.38
2023-05-18T07:02:10.501Z,10.52
2023-05-18T07:04:37.070Z,10.58
2023-05-18T07:07:03.570Z,10.63
2023-05-18T07:09:30.105Z,10.74
2023-05-18T07:11:56.510Z,10.80
2023-05-18T07:14:23.381Z,10.82
2023-05-18T07:16:49.758Z,10.88
2023-05-18T07:19:16.130Z,10.93
2023-05-18T07:21:42.538Z,10.96
2023-05-18T07:24:09.205Z,11.00
2023-05-18T07:26:35.596Z,11.07
2023-05-18T07:29:02.161Z,11.15
2023-05-18T07:31:28.548Z,11.27
2023-05-18T07:33:55.045Z,11.31
2023-05-18T07:36:21.583Z,11.37
2023-05-18T07:38:53.410Z,11.46
2023-05-18T07:41:22.049Z,11.59
2023-05-18T07:43:50.519Z,11.65
2023-05-18T07:46:17.761Z,11.68
2023-05-18T07:48:44.831Z,11.80
2023-05-18T07:51:11.787Z,11.98
2023-05-18T07:53:38.856Z,12.12
2023-05-18T07:56:06.942Z,12.19
2023-05-18T07:58:34.966Z,12.30
2023-05-18T08:01:01.444Z,12.37
2023-05-18T08:03:27.831Z,12.40
2023-05-18T08:05:54.409Z,12.44
2023-05-18T08:08:21.163Z,12.53
2023-05-18T08:10:47.591Z,12.63
2023-05-18T08:13:14.342Z,12.73
2023-05-18T08:15:40.693Z,12.80
2023-05-18T08:18:07.130Z,12.85
2023-05-18T08:20:33.776Z,12.94
2023-05-18T08:23:00.175Z,13.03
2023-05-18T08:25:26.543Z,13.12
2023-05-18T08:27:53.108Z,13.18
2023-05-18T08:30:21.101Z,13.28
2023-05-18T08:32:48.249Z,13.34
2023-05-18T08:35:14.705Z,13.35
2023-05-18T08:37:41.111Z,13.42
2023-05-18T08:40:10.882Z,13.46
2023-05-18T08:42:58.423Z,13.49
2023-05-18T08:45:38.558Z,13.47
2023-05-18T08:48:05.669Z,13.58
2023-05-18T08:50:32.525Z,13.65
2023-05-18T08:53:05.267Z,13.70
2023-05-18T08:55:36.392Z,13.74
2023-05-18T08:58:06.602Z,13.72
2023-05-18T09:00:33.493Z,13.74
2023-05-18T09:03:00.564Z,13.84
2023-05-18T09:05:27.268Z,13.95
2023-05-18T09:07:54.289Z,14.09
2023-05-18T09:10:22.080Z,14.27
2023-05-18T09:12:50.085Z,14.39
2023-05-18T09:15:21.311Z,14.48
2023-05-18T09:17:47.689Z,14.67
2023-05-18T09:20:15.870Z,14.81
2023-05-18T09:22:42.359Z,14.94
2023-05-18T09:25:09.972Z,14.96
2023-05-18T09:27:37.590Z,15.00
2023-05-18T09:30:04.567Z,15.05
2023-05-18T09:32:35.591Z,15.16
2023-05-18T09:35:06.060Z,15.21
2023-05-18T09:37:33.261Z,15.23
2023-05-18T09:40:01.563Z,15.27
2023-05-18T09:42:39.333Z,15.44
2023-05-18T09:45:26.119Z,15.51
2023-05-18T09:47:52.791Z,15.47
2023-05-18T09:50:23.340Z,15.58
2023-05-18T09:52:50.426Z,15.67
2023-05-18T09:55:19.075Z,15.85
2023-05-18T09:57:47.557Z,15.95
2023-05-18T10:00:16.318Z,16.02
2023-05-18T10:02:48.241Z,16.04
2023-05-18T10:05:33.210Z,16.10
2023-05-18T10:08:01.308Z,16.05
2023-05-18T10:10:28.947Z,16.07
2023-05-18T10:12:57.743Z,16.10
2023-05-18T10:15:24.842Z,15.97
2023-05-18T10:17:55.757Z,15.91
2023-05-18T10:20:23.768Z,15.89
2023-05-18T10:22:50.256Z,15.85
2023-05-18T10:25:24.898Z,15.83
2023-05-18T10:27:56.251Z,15.86
2023-05-18T10:30:22.972Z,15.91
2023-05-18T10:32:51.778Z,15.94
2023-05-18T10:35:18.888Z,15.89
2023-05-18T10:37:47.305Z,15.90
2023-05-18T10:40:17.028Z,15.98
2023-05-18T10:42:45.586Z,16.09
2023-05-18T10:45:12.236Z,16.19
2023-05-18T10:47:41.958Z,16.26
2023-05-18T10:50:09.369Z,16.28
2023-05-18T10:52:40.714Z,16.21
2023-05-18T10:55:08.846Z,16.17
2023-05-18T10:57:42.866Z,16.11
2023-05-18T11:00:09.987Z,16.05
2023-05-18T11:02:41.716Z,16.08
2023-05-18T11:05:10.260Z,16.09
2023-05-18T11:07:37.879Z,16.21
2023-05-18T11:10:09.438Z,16.32
2023-05-18T11:12:37.806Z,16.44
2023-05-18T11:15:05.329Z,16.34
2023-05-18T11:17:31.894Z,16.26
2023-05-18T11:20:07.453Z,16.16
2023-05-18T11:22:46.012Z,16.10
2023-05-18T11:25:27.690Z,16.08
2023-05-18T11:28:05.878Z,16.11
2023-05-18T11:30:32.302Z,16.12
2023-05-18T11:33:11.134Z,16.09
2023-05-18T11:36:12.922Z,16.03
2023-05-18T11:38:53.574Z,16.02
2023-05-18T11:41:46.959Z,15.98
2023-05-18T11:44:24.257Z,15.92
2023-05-18T11:46:53.588Z,15.81
2023-05-18T11:49:23.264Z,15.72
2023-05-18T11:52:24.310Z,15.74
2023-05-18T11:55:00.634Z,15.83
2023-05-18T11:57:35.776Z,15.93
2023-05-18T12:00:12.788Z,15.98
2023-05-18T12:02:43.137Z,15.98
2023-05-18T12:05:10.530Z,16.04
2023-05-18T12:07:38.458Z,16.03
2023-05-18T12:10:11.202Z,16.00
2023-05-18T12:12:38.898Z,15.92
2023-05-18T12:15:07.253Z,15.82
2023-05-18T12:17:43.824Z,15.82
2023-05-18T12:20:14.873Z,15.93
2023-05-18T12:22:43.825Z,15.97
2023-05-18T12:25:10.994Z,16.01
2023-05-18T12:27:43.111Z,16.01
2023-05-18T12:30:13.377Z,15.96
2023-05-18T12:32:47.964Z,15.93
2023-05-18T12:35:14.506Z,15.93
2023-05-18T12:37:45.968Z,15.97
2023-05-18T12:40:15.242Z,15.95
2023-05-18T12:43:03.579Z,15.90
2023-05-18T12:45:32.449Z,15.87
2023-05-18T12:48:06.251Z,15.85
2023-05-18T12:50:34.137Z,15.79
2023-05-18T12:53:03.358Z,15.72
2023-05-18T12:55:31.370Z,15.62
2023-05-18T12:58:17.229Z,15.59
2023-05-18T13:00:47.774Z,15.59
2023-05-18T13:03:20.878Z,15.59
2023-05-18T13:06:03.042Z,15.46
2023-05-18T13:08:31.499Z,15.41
2023-05-18T13:11:12.845Z,15.45
2023-05-18T13:14:04.033Z,15.38
2023-05-18T13:16:32.287Z,15.38
2023-05-18T13:19:01.920Z,15.25
2023-05-18T13:21:28.824Z,15.21
2023-05-18T13:23:56.718Z,15.16
2023-05-18T13:26:24.704Z,15.06
2023-05-18T13:28:54.059Z,14.98
2023-05-18T13:31:21.609Z,14.91
2023-05-18T13:33:49.660Z,14.90
2023-05-18T13:36:16.895Z,14.91
2023-05-18T13:38:43.480Z,14.88
2023-05-18T13:41:14.393Z,14.87
2023-05-18T13:43:42.006Z,14.80
2023-05-18T13:46:08.414Z,14.75
2023-05-18T13:48:34.857Z,14.78
2023-05-18T13:51:01.476Z,14.75
2023-05-18T13:53:27.943Z,14.76
2023-05-18T13:55:54.307Z,14.78
2023-05-18T13:58:20.644Z,14.73
2023-05-18T14:00:47.127Z,14.68
2023-05-18T14:03:14.462Z,14.67
2023-05-18T14:05:41.178Z,14.67
2023-05-18T14:08:07.734Z,14.62
2023-05-18T14:10:34.282Z,14.60
2023-05-18T14:13:00.736Z,14.54
2023-05-18T14:15:27.114Z,14.51
2023-05-18T14:17:53.577Z,14.43
2023-05-18T14:20:20.252Z,14.36
2023-05-18T14:22:46.698Z,14.40
2023-05-18T14:25:13.119Z,14.44
2023-05-18T14:27:39.475Z,14.40
2023-05-18T14:30:06.656Z,14.36
2023-05-18T14:32:33.151Z,14.36
2023-05-18T14:34:59.594Z,14.29
2023-05-18T14:37:26.125Z,14.21
2023-05-18T14:39:52.780Z,14.14
2023-05-18T14:42:19.422Z,14.14
2023-05-18T14:44:46.820Z,14.08
2023-05-18T14:47:13.322Z,14.02
2023-05-18T14:49:39.725Z,13.91
2023-05-18T14:52:06.245Z,13.85
2023-05-18T14:54:32.667Z,13.81
2023-05-18T14:56:59.134Z,13.78
2023-05-18T14:59:25.479Z,13.79
2023-05-18T15:01:51.984Z,13.76
2023-05-18T15:04:21.053Z,13.72
2023-05-18T15:06:48.662Z,13.66
2023-05-18T15:09:15.355Z,13.67
2023-05-18T15:11:41.878Z,13.64
2023-05-18T15:14:08.292Z,13.62
2023-05-18T15:16:35.270Z,13.60
2023-05-18T15:19:01.970Z,13.55
2023-05-18T15:21:28.825Z,13.53
2023-05-18T15:23:55.426Z,13.54
2023-05-18T15:26:21.823Z,13.52
2023-05-18T15:28:48.695Z,13.49
2023-05-18T15:31:15.913Z,13.47
2023-05-18T15:33:43.136Z,13.45
2023-05-18T15:36:10.088Z,13.48
2023-05-18T15:38:36.491Z,13.49
2023-05-18T15:41:03.253Z,13.50
2023-05-18T15:43:30.378Z,13.51
2023-05-18T15:45:57.524Z,13.50
2023-05-18T15:48:23.948Z,13.47
2023-05-18T15:50:50.307Z,13.45
2023-05-18T15:53:16.687Z,13.42
2023-05-18T15:55:43.027Z,13.43
2023-05-18T15:58:09.454Z,13.46
2023-05-18T16:00:35.820Z,13.49
2023-05-18T16:03:02.297Z,13.54
2023-05-18T16:05:29.114Z,13.52
2023-05-18T16:07:55.776Z,13.47
2023-05-18T16:10:22.887Z,13.43
2023-05-18T16:12:49.205Z,13.44
2023-05-18T16:15:15.687Z,13.42
2023-05-18T16:17:42.118Z,13.42
2023-05-18T16:20:09.049Z,13.40
2023-05-18T16:22:35.530Z,13.37
2023-05-18T16:25:01.893Z,13.37
2023-05-18T16:27:28.243Z,13.36
2023-05-18T16:29:54.685Z,13.36
2023-05-18T16:32:21.210Z,13.36
2023-05-18T16:34:47.624Z,13.37
2023-05-18T16:37:13.965Z,13.34
2023-05-18T16:39:40.518Z,13.33
2023-05-18T16:42:07.013Z,13.30
2023-05-18T16:44:34.057Z,13.29
2023-05-18T16:47:00.312Z,13.26
2023-05-18T16:49:26.690Z,13.26
2023-05-18T16:51:53.211Z,13.25
2023-05-18T16:54:19.657Z,13.25
2023-05-18T16:56:46.255Z,13.24
2023-05-18T16:59:12.665Z,13.24
2023-05-18T17:01:38.955Z,13.23
2023-05-18T17:04:05.495Z,13.19
2023-05-18T17:06:31.910Z,13.16
2023-05-18T17:08:58.659Z,13.14
2023-05-18T17:11:27.009Z,13.12
2023-05-18T17:13:53.730Z,13.08
2023-05-18T17:16:21.332Z,13.06
2023-05-18T17:18:48.254Z,13.03
2023-05-18T17:21:15.348Z,13.04
2023-05-18T17:23:41.625Z,13.00
2023-05-18T17:26:08.026Z,12.99
2023-05-18T17:28:34.361Z,12.95
2023-05-18T17:31:00.807Z,12.90
2023-05-18T17:33:27.096Z,12.87
2023-05-18T17:35:53.421Z,12.87
2023-05-18T17:38:21.810Z,12.88
2023-05-18T17:40:48.065Z,12.87
2023-05-18T17:43:14.413Z,12.86
2023-05-18T17:45:40.793Z,12.85
2023-05-18T17:48:07.176Z,12.84
2023-05-18T17:50:36.919Z,12.83
2023-05-18T17:53:04.192Z,12.81
2023-05-18T17:55:30.652Z,12.77
2023-05-18T17:57:58.919Z,12.73
2023-05-18T18:00:25.369Z,12.70
2023-05-18T18:02:51.745Z,12.70
2023-05-18T18:05:18.129Z,12.66
2023-05-18T18:07:44.467Z,12.63
2023-05-18T18:10:11.143Z,12.59
2023-05-18T18:12:37.423Z,12.53
2023-05-18T18:15:03.991Z,12.50
2023-05-18T18:17:30.660Z,12.48
2023-05-18T18:19:57.782Z,12.46
2023-05-18T18:22:24.097Z,12.40
2023-05-18T18:24:50.362Z,12.38
2023-05-18T18:27:18.692Z,12.34
2023-05-18T18:29:45.600Z,12.32
2023-05-18T18:32:11.941Z,12.28
2023-05-18T18:34:38.331Z,12.26
2023-05-18T18:37:04.978Z,12.23
2023-05-18T18:39:31.438Z,12.16
2023-05-18T18:41:57.784Z,12.14
2023-05-18T18:44:24.080Z,12.12
2023-05-18T18:46:50.509Z,12.08
2023-05-18T18:49:16.954Z,12.06
2023-05-18T18:51:43.624Z,12.05
2023-05-18T18:54:10.260Z,12.01
2023-05-18T18:56:36.587Z,11.96
2023-05-18T18:59:02.943Z,11.92
2023-05-18T19:01:29.292Z,11.88
2023-05-18T19:03:55.677Z,11.84
2023-05-18T19:06:22.624Z,11.81
2023-05-18T19:08:51.513Z,11.78
2023-05-18T19:11:17.951Z,11.74
2023-05-18T19:13:44.203Z,11.71
2023-05-18T19:16:10.656Z,11.70
2023-05-18T19:18:37.109Z,11.69
2023-05-18T19:21:03.517Z,11.67
2023-05-18T19:23:29.788Z,11.63
2023-05-18T19:25:56.190Z,11.59
2023-05-18T19:28:22.716Z,11.55
2023-05-18T19:30:48.999Z,11.49
2023-05-18T19:33:15.498Z,11.45
2023-05-18T19:35:41.971Z,11.41
2023-05-18T19:38:08.428Z,11.37
2023-05-18T19:40:35.192Z,11.34
2023-05-18T19:43:02.526Z,11.30
2023-05-18T19:45:29.118Z,11.31
2023-05-18T19:47:57.176Z,11.27
2023-05-18T19:50:23.565Z,11.29
2023-05-18T19:52:50.102Z,11.28
2023-05-18T19:55:17.123Z,11.27
2023-05-18T19:57:43.428Z,11.24
2023-05-18T20:00:13.098Z,11.23
2023-05-18T20:02:39.586Z,11.23
2023-05-18T20:05:06.896Z,11.22
2023-05-18T20:07:33.440Z,11.20
2023-05-18T20:09:59.871Z,11.22
2023-05-18T20:12:27.635Z,11.22
2023-05-18T20:14:54.508Z,11.20
2023-05-18T20:17:20.952Z,11.19
2023-05-18T20:19:49.881Z,11.19
2023-05-18T20:22:17.206Z,11.16
2023-05-18T20:24:44.054Z,11.16
2023-05-18T20:27:14.457Z,11.16
2023-05-18T20:29:40.894Z,11.15
2023-05-18T20:32:07.345Z,11.14
2023-05-18T20:34:34.368Z,11.12
2023-05-18T20:37:01.921Z,11.13
2023-05-18T20:39:28.340Z,11.14
2023-05-18T20:41:54.661Z,11.14
2023-05-18T20:44:22.785Z,11.13
2023-05-18T20:46:52.197Z,11.14
2023-05-18T20:49:20.963Z,11.12
2023-05-18T20:51:48.567Z,11.10
2023-05-18T20:54:17.156Z,11.10
2023-05-18T20:56:43.782Z,11.09
2023-05-18T20:59:11.983Z,11.09
2023-05-18T21:01:38.787Z,11.10
2023-05-18T21:04:05.684Z,11.10
2023-05-18T21:06:32.205Z,11.12
2023-05-18T21:08:58.640Z,11.13
2023-05-18T21:11:25.515Z,11.14
2023-05-18T21:13:51.989Z,11.13
2023-05-18T21:16:18.602Z,11.12
2023-05-18T21:18:45.053Z,11.11
2023-05-18T21:21:11.346Z,11.11
2023-05-18T21:23:37.828Z,11.10
2023-05-18T21:26:04.273Z,11.10
2023-05-18T21:28:31.102Z,11.11
2023-05-18T21:30:57.553Z,11.09
2023-05-18T21:33:24.117Z,11.08
2023-05-18T21:35:50.672Z,11.07
2023-05-18T21:38:17.057Z,11.06
2023-05-18T21:40:43.936Z,11.04
2023-05-18T21:43:10.991Z,11.04
2023-05-18T21:45:38.196Z,11.04
2023-05-18T21:48:05.000Z,11.03
2023-05-18T21:50:33.764Z,11.04
2023-05-18T21:53:02.153Z,11.01
2023-05-18T21:55:29.735Z,11.00
2023-05-18T21:57:56.073Z,11.00
2023-05-18T22:00:22.428Z,11.01
2023-05-18T22:02:48.732Z,11.01
2023-05-18T22:05:15.484Z,10.99
2023-05-18T22:07:42.109Z,10.99
2023-05-18T22:10:08.690Z,10.97
2023-05-18T22:12:37.091Z,10.96
2023-05-18T22:15:04.134Z,10.96
2023-05-18T22:17:30.498Z,10.95
2023-05-18T22:19:57.518Z,10.94
2023-05-18T22:24:55.422Z,10.93
2023-05-18T22:27:21.740Z,10.94
2023-05-18T22:29:48.004Z,10.92
2023-05-18T22:32:16.324Z,10.93
2023-05-18T22:34:42.714Z,10.88
2023-05-18T22:37:08.987Z,10.83
2023-05-18T22:39:35.298Z,10.81
2023-05-18T22:42:01.589Z,10.75
2023-05-18T22:44:27.960Z,10.73
2023-05-18T22:46:54.474Z,10.70
2023-05-18T22:49:21.479Z,10.67
2023-05-18T22:51:47.804Z,10.65
2023-05-18T22:54:14.276Z,10.64
2023-05-18T22:56:40.624Z,10.61
2023-05-18T22:59:09.552Z,10.59
2023-05-18T23:01:36.961Z,10.58
2023-05-18T23:04:03.354Z,10.58
2023-05-18T23:06:31.019Z,10.58
2023-05-18T23:08:59.781Z,10.59
2023-05-18T23:11:27.663Z,10.57
2023-05-18T23:13:54.020Z,10.57
2023-05-18T23:16:20.696Z,10.56
2023-05-18T23:18:48.090Z,10.56
2023-05-18T23:21:14.361Z,10.58
2023-05-18T23:23:40.857Z,10.59
2023-05-18T23:26:08.441Z,10.58
2023-05-18T23:28:35.023Z,10.59
2023-05-18T23:31:01.304Z,10.57
2023-05-18T23:33:28.107Z,10.59
2023-05-18T23:35:59.173Z,10.59
2023-05-18T23:38:33.979Z,10.60
2023-05-18T23:41:03.021Z,10.61
2023-05-18T23:43:29.716Z,10.60
2023-05-18T23:45:58.851Z,10.58
2023-05-18T23:48:31.647Z,10.56
2023-05-18T23:51:01.052Z,10.54
2023-05-18T23:53:31.846Z,10.53
2023-05-18T23:55:59.460Z,10.52
2023-05-18T23:58:31.354Z,10.49
